Time;durP1;ratioP1;P1;durP2;ratioP2;P2;SDS_P1;SDS_P2;PMS_P1;PMS_P2;Temp;Humidity;BMP_temperature;BMP_pressure;BME280_temperature;BME280_humidity;BME280_pressure;Samples;Min_cycle;Max_cycle;Signal;HPM_P1;HPM_P2
2022/06/24 00:02:09;;;;;;;5.80;4.07;;;;;;;19.02;86.49;94746.47;4934591;29;20174;-78
2022/06/24 00:04:36;;;;;;;8.43;4.43;;;;;;;19.05;86.85;94758.47;4934357;29;20959;-78
2022/06/24 00:07:12;;;;;;;9.13;4.43;;;;;;;19.01;86.78;94750.22;4934922;29;20191;-78
2022/06/24 00:09:40;;;;;;;11.40;4.70;;;;;;;18.96;86.92;94752.84;4934978;29;20577;-78
2022/06/24 00:12:08;;;;;;;6.70;4.57;;;;;;;19.01;86.82;94766.22;4934704;29;20198;-78
2022/06/24 00:14:38;;;;;;;9.60;4.93;;;;;;;19.03;86.90;94768.59;4934762;29;20214;-78
2022/06/24 00:17:09;;;;;;;9.30;4.80;;;;;;;18.99;86.94;94773.69;4909388;29;20630;-78
2022/06/24 00:19:51;;;;;;;9.85;5.97;;;;;;;18.91;86.74;94770.72;4934824;29;20176;-78
2022/06/24 00:22:16;;;;;;;15.48;6.35;;;;;;;18.73;86.92;94754.16;4934633;29;20175;-78
2022/06/24 00:24:42;;;;;;;17.58;8.05;;;;;;;18.96;86.52;94782.22;4934565;29;20209;-78
2022/06/24 00:27:22;;;;;;;11.98;7.03;;;;;;;18.92;86.95;94788.34;4935060;29;20217;-78
2022/06/24 00:29:49;;;;;;;14.73;6.47;;;;;;;18.70;87.04;94768.03;4934550;29;20215;-78
2022/06/24 00:32:16;;;;;;;13.25;6.20;;;;;;;18.77;87.35;94781.09;4934377;29;20715;-78
2022/06/24 00:34:42;;;;;;;11.25;4.95;;;;;;;18.89;86.79;94799.53;4934356;29;20191;-78
2022/06/24 00:37:24;;;;;;;12.18;4.68;;;;;;;18.82;86.85;94803.25;4934616;29;20230;-78
2022/06/24 00:39:50;;;;;;;6.57;3.75;;;;;;;18.81;87.09;94803.53;4929951;29;20230;-78
2022/06/24 00:42:17;;;;;;;8.32;4.05;;;;;;;18.78;87.05;94799.50;4934817;29;20194;-78
2022/06/24 00:44:50;;;;;;;11.18;4.63;;;;;;;18.59;86.90;94766.41;4935068;29;20230;-78
2022/06/24 00:47:17;;;;;;;6.85;3.92;;;;;;;18.79;86.81;94803.78;4918055;29;20815;-78
2022/06/24 00:49:45;;;;;;;8.30;4.20;;;;;;;18.69;86.63;94785.06;4934588;29;20183;-78
2022/06/24 00:52:11;;;;;;;6.28;3.97;;;;;;;18.78;86.88;94799.50;4934162;29;20206;-78
2022/06/24 00:54:37;;;;;;;7.88;3.95;;;;;;;18.80;86.82;94799.25;4934295;29;20228;-78
2022/06/24 00:57:03;;;;;;;13.57;6.20;;;;;;;18.85;86.97;94804.63;4934166;29;20183;-78
2022/06/24 00:59:34;;;;;;;17.42;8.45;;;;;;;18.88;86.66;94798.72;4933961;29;20282;-78
2022/06/24 01:02:03;;;;;;;12.23;6.70;;;;;;;18.90;86.43;94801.16;4934189;29;20214;-78
2022/06/24 01:04:34;;;;;;;15.73;9.45;;;;;;;18.87;86.11;94796.31;4934392;29;20190;-78
2022/06/24 01:07:00;;;;;;;9.40;5.97;;;;;;;18.88;86.48;94798.72;4916983;29;20187;-78
2022/06/24 01:09:25;;;;;;;24.35;13.38;;;;;;;18.86;86.47;94806.19;4933917;29;20270;-78
2022/06/24 01:11:51;;;;;;;14.18;7.90;;;;;;;18.77;86.08;94791.75;4916755;29;20210;-78
2022/06/24 01:14:17;;;;;;;20.55;11.60;;;;;;;18.79;86.65;94805.66;4933896;29;20177;-78
2022/06/24 01:16:42;;;;;;;21.27;9.75;;;;;;;18.82;86.20;94811.28;4935000;29;20656;-78
2022/06/24 01:19:10;;;;;;;17.02;8.00;;;;;;;18.79;85.61;94810.97;4937323;29;20577;-78
2022/06/24 01:21:41;;;;;;;14.23;8.05;;;;;;;18.74;85.67;94809.13;4937379;29;20175;-78
2022/06/24 01:24:11;;;;;;;14.95;7.38;;;;;;;18.75;85.70;94808.06;4936857;29;20191;-78
2022/06/24 01:26:39;;;;;;;11.75;6.10;;;;;;;18.69;85.57;94809.09;4936944;29;20190;-78
2022/06/24 01:29:05;;;;;;;11.27;7.13;;;;;;;18.60;85.80;94804.50;4936553;29;20179;-78
2022/06/24 01:31:31;;;;;;;12.20;5.80;;;;;;;18.54;86.43;94803.69;4937396;29;20590;-78
2022/06/24 01:33:57;;;;;;;8.57;5.47;;;;;;;18.53;86.01;94801.25;4937411;29;20183;-78
2022/06/24 01:36:23;;;;;;;9.32;5.75;;;;;;;18.46;86.44;94812.19;4937144;29;20560;-78
2022/06/24 01:38:49;;;;;;;11.15;5.30;;;;;;;18.44;86.93;94806.28;4937170;29;20318;-78
2022/06/24 01:41:14;;;;;;;15.85;5.20;;;;;;;18.43;87.00;94796.69;4937018;29;20172;-78
2022/06/24 01:43:40;;;;;;;6.82;4.78;;;;;;;18.33;87.16;94789.50;4937038;29;20180;-78
2022/06/24 01:46:06;;;;;;;8.75;5.13;;;;;;;18.40;87.24;94805.22;4937122;29;21437;-78
2022/06/24 01:48:32;;;;;;;5.63;4.25;;;;;;;18.36;87.38;94796.13;4937196;29;20943;-78
2022/06/24 01:50:57;;;;;;;7.22;4.88;;;;;;;18.27;87.20;94779.84;4937003;29;20179;-78
2022/06/24 01:53:23;;;;;;;8.40;3.90;;;;;;;18.39;87.22;94798.28;4937091;29;20715;-78
2022/06/24 01:55:48;;;;;;;17.67;5.07;;;;;;;18.38;87.13;94786.03;4936604;29;20748;-78
2022/06/24 01:58:13;;;;;;;10.52;4.70;;;;;;;18.38;87.05;94780.69;4936858;29;20176;-77
2022/06/24 02:00:39;;;;;;;10.77;4.72;;;;;;;18.30;87.58;94766.00;4937069;29;20505;-78
2022/06/24 02:03:05;;;;;;;7.28;4.47;;;;;;;18.24;87.63;94761.72;4936638;29;20187;-78
2022/06/24 02:05:31;;;;;;;14.32;5.85;;;;;;;18.00;87.97;94725.91;4936821;29;20223;-78
2022/06/24 02:07:56;;;;;;;18.40;8.23;;;;;;;18.23;88.17;94759.31;4936655;29;20253;-78
2022/06/24 02:15:51;;;;;;;10.60;4.90;;;;;;;18.17;87.51;94771.00;4936480;29;20198;-78
2022/06/24 02:18:16;;;;;;;9.95;4.57;;;;;;;18.13;87.90;94770.72;4936481;29;20183;-78
2022/06/24 02:20:42;;;;;;;12.45;4.85;;;;;;;18.06;87.97;94764.84;4936674;29;20183;-78
2022/06/24 02:23:07;;;;;;;13.18;5.57;;;;;;;18.07;87.99;94766.44;4936360;29;20704;-78
2022/06/24 02:25:34;;;;;;;11.40;5.07;;;;;;;18.00;88.19;94773.84;4936329;29;20664;-78
2022/06/24 02:28:00;;;;;;;12.70;4.40;;;;;;;17.96;88.35;94764.78;4936327;29;20183;-78
2022/06/24 02:30:26;;;;;;;12.18;4.82;;;;;;;17.88;88.45;94762.63;4936438;29;20182;-77
2022/06/24 02:32:52;;;;;;;15.98;7.93;;;;;;;17.70;89.08;94745.19;4936494;29;20702;-78
2022/06/24 02:35:18;;;;;;;13.65;5.28;;;;;;;17.93;89.25;94783.94;4936423;29;20183;-78
2022/06/24 02:37:43;;;;;;;9.85;4.90;;;;;;;17.92;89.60;94785.00;4936458;29;20559;-78
2022/06/24 02:42:57;;;;;;;13.32;6.30;;;;;;;17.83;90.07;94786.53;4935641;29;20217;-77
2022/06/24 02:45:23;;;;;;;8.82;3.90;;;;;;;17.73;89.44;94779.28;4935928;29;20175;-77
2022/06/24 02:47:48;;;;;;;11.57;4.82;;;;;;;17.70;88.77;94772.63;4935854;29;20179;-77
2022/06/24 02:50:14;;;;;;;11.43;6.68;;;;;;;17.67;89.01;94777.66;4935654;29;20598;-77
2022/06/24 02:52:39;;;;;;;20.38;12.20;;;;;;;17.71;88.80;94773.44;4935362;29;20234;-77
2022/06/24 02:55:05;;;;;;;10.95;4.45;;;;;;;17.73;88.47;94775.84;4935277;29;20659;-77
2022/06/24 02:57:31;;;;;;;31.33;18.70;;;;;;;17.72;88.35;94769.72;4935622;29;20185;-77
2022/06/24 02:59:56;;;;;;;10.43;5.03;;;;;;;17.63;87.74;94768.59;4931923;29;20234;-77
2022/06/24 03:02:21;;;;;;;31.50;15.70;;;;;;;17.62;88.00;94770.44;4935127;29;20171;-77
2022/06/24 03:04:47;;;;;;;18.60;8.05;;;;;;;17.75;87.81;94782.50;4935392;29;20230;-77
2022/06/24 03:07:12;;;;;;;23.02;11.82;;;;;;;17.80;87.76;94782.53;4935440;29;20246;-79
2022/06/24 03:09:38;;;;;;;17.02;8.68;;;;;;;17.81;87.48;94778.03;4936875;29;20265;-79
2022/06/24 03:12:03;;;;;;;12.70;6.82;;;;;;;17.86;87.26;94780.72;4936085;29;20195;-79
2022/06/24 03:14:29;;;;;;;10.48;7.25;;;;;;;17.87;86.51;94782.31;4936355;29;20716;-79
2022/06/24 03:16:54;;;;;;;22.60;12.25;;;;;;;17.89;87.00;94798.84;4935644;29;20272;-79
2022/06/24 03:19:20;;;;;;;16.90;9.80;;;;;;;17.94;86.30;94794.34;4935737;29;20167;-79
2022/06/24 03:21:45;;;;;;;10.70;6.30;;;;;;;17.61;86.07;94746.72;4935309;29;20567;-79
2022/06/24 03:24:10;;;;;;;13.77;5.80;;;;;;;17.97;85.59;94796.50;4935765;29;20262;-79
2022/06/24 03:26:36;;;;;;;6.07;3.90;;;;;;;17.97;85.33;94796.50;4935679;29;20571;-79
2022/06/24 03:29:01;;;;;;;10.15;3.45;;;;;;;17.85;85.15;94779.91;4935377;29;20552;-79
2022/06/24 03:31:27;;;;;;;8.02;3.05;;;;;;;18.10;85.05;94798.69;4935159;29;20179;-79
2022/06/24 03:33:55;;;;;;;7.28;3.30;;;;;;;18.23;84.87;94805.44;4935425;29;20957;-79
2022/06/24 03:36:21;;;;;;;8.65;3.33;;;;;;;18.34;83.97;94811.56;4935256;29;20245;-79
2022/06/24 03:38:46;;;;;;;10.85;4.47;;;;;;;18.37;84.51;94811.06;4935231;29;20183;-79
2022/06/24 03:41:12;;;;;;;9.77;4.53;;;;;;;18.38;83.77;94800.16;4933299;29;20586;-79
2022/06/24 03:43:38;;;;;;;7.65;3.80;;;;;;;18.47;84.11;94801.25;4934685;29;20190;-80
2022/06/24 03:46:04;;;;;;;6.07;3.35;;;;;;;18.42;83.91;94781.78;4935236;29;20171;-80
2022/06/24 03:48:30;;;;;;;7.93;3.28;;;;;;;18.64;83.46;94802.94;4935253;29;20732;-80
2022/06/24 03:50:56;;;;;;;7.45;3.58;;;;;;;18.59;83.33;94805.59;4935550;29;20179;-80
2022/06/24 03:53:21;;;;;;;9.85;3.10;;;;;;;18.62;83.16;94810.41;4934716;29;20366;-78
2022/06/24 03:55:48;;;;;;;11.27;3.42;;;;;;;18.63;83.21;94812.00;4930335;29;20772;-78
2022/06/24 03:58:13;;;;;;;8.60;4.00;;;;;;;18.63;82.91;94796.81;4929513;29;20188;-78
2022/06/24 04:00:39;;;;;;;8.27;3.42;;;;;;;18.60;83.13;94796.50;4932035;29;20205;-78
2022/06/24 04:03:04;;;;;;;9.85;3.38;;;;;;;18.45;82.08;94774.06;4930968;29;20258;-78
2022/06/24 04:05:30;;;;;;;5.78;3.30;;;;;;;18.55;82.23;94794.63;4929977;29;20218;-78
2022/06/24 04:07:56;;;;;;;6.70;3.35;;;;;;;18.57;82.17;94797.88;4932806;29;20262;-78
2022/06/24 04:10:22;;;;;;;8.32;3.33;;;;;;;18.61;83.02;94792.78;4934361;29;20592;-78
2022/06/24 04:12:47;;;;;;;5.05;3.75;;;;;;;18.72;83.20;94789.09;4934419;29;20246;-78
2022/06/24 04:15:19;;;;;;;6.30;3.25;;;;;;;18.86;82.38;94806.19;4934238;29;20171;-78
2022/06/24 04:17:49;;;;;;;7.07;3.10;;;;;;;18.94;82.20;94813.69;4934053;29;20664;-78
2022/06/24 04:20:17;;;;;;;11.48;3.45;;;;;;;18.96;82.38;94814.22;4934506;29;20678;-78
2022/06/24 04:22:43;;;;;;;8.60;3.30;;;;;;;18.91;81.80;94806.22;4934391;29;20186;-78
2022/06/24 04:25:10;;;;;;;8.80;3.70;;;;;;;18.97;82.13;94813.16;4934367;29;20179;-78
2022/06/24 04:27:36;;;;;;;6.10;3.58;;;;;;;18.99;82.77;94821.72;4934339;29;20197;-78
2022/06/24 04:30:04;;;;;;;13.55;4.40;;;;;;;19.03;83.45;94825.44;4934220;29;20183;-78
2022/06/24 04:32:29;;;;;;;9.10;4.35;;;;;;;19.05;82.77;94823.31;4936897;29;20195;-78
2022/06/24 04:34:55;;;;;;;11.52;4.00;;;;;;;19.07;82.68;94829.19;4934070;29;20257;-78
2022/06/24 04:37:20;;;;;;;8.02;4.03;;;;;;;19.03;82.42;94829.97;4939620;29;20186;-78
2022/06/24 04:39:46;;;;;;;10.43;3.70;;;;;;;18.88;81.73;94819.28;4940281;29;20207;-77
2022/06/24 04:42:12;;;;;;;11.02;3.60;;;;;;;18.95;82.36;94839.28;4943497;29;20190;-78
2022/06/24 04:44:37;;;;;;;6.05;3.42;;;;;;;19.05;82.72;94835.84;4941126;29;20202;-78
2022/06/24 04:47:03;;;;;;;7.93;3.85;;;;;;;19.21;82.78;94840.16;4933772;29;20187;-78
2022/06/24 04:49:28;;;;;;;4.63;3.92;;;;;;;19.38;82.13;94830.03;4934456;29;20183;-79
2022/06/24 04:51:57;;;;;;;6.75;3.75;;;;;;;19.47;80.48;94814.28;4937259;29;20191;-79
2022/06/24 04:54:22;;;;;;;7.75;3.58;;;;;;;19.77;80.11;94833.00;4937672;29;20999;-79
2022/06/24 04:56:48;;;;;;;8.00;3.88;;;;;;;20.05;79.84;94844.22;4938121;29;20178;-79
2022/06/24 04:59:13;;;;;;;11.77;4.22;;;;;;;20.18;79.18;94839.09;4938306;29;20179;-79
2022/06/24 05:01:38;;;;;;;12.18;3.75;;;;;;;20.32;79.04;94844.69;4938367;29;20182;-79
2022/06/24 05:04:04;;;;;;;8.95;4.15;;;;;;;20.32;79.28;94828.66;4937945;29;20179;-79
2022/06/24 05:06:29;;;;;;;8.50;4.10;;;;;;;20.47;79.13;94836.66;4937942;29;20674;-79
2022/06/24 05:08:55;;;;;;;7.70;4.53;;;;;;;20.61;79.45;94836.84;4937102;29;20640;-78
2022/06/24 05:11:21;;;;;;;12.95;4.65;;;;;;;20.66;78.55;94839.53;4936891;29;20331;-78
2022/06/24 05:13:46;;;;;;;11.35;4.65;;;;;;;20.69;79.34;94845.09;4936988;29;20713;-78
2022/06/24 05:16:12;;;;;;;10.55;4.07;;;;;;;20.69;79.79;94838.94;4936824;29;20174;-78
2022/06/24 05:18:37;;;;;;;11.38;5.05;;;;;;;20.78;79.47;94853.38;4936428;29;20181;-78
2022/06/24 05:21:06;;;;;;;11.30;4.43;;;;;;;20.76;78.95;94846.72;4936791;29;20186;-78
2022/06/24 05:23:32;;;;;;;12.68;5.65;;;;;;;20.91;78.85;94854.66;4937387;29;20162;-78
2022/06/24 05:25:57;;;;;;;9.60;5.38;;;;;;;21.28;78.69;94849.63;4937697;29;20179;-79
2022/06/24 05:28:23;;;;;;;10.18;5.85;;;;;;;22.00;78.10;94855.28;4937452;29;20164;-76
2022/06/24 05:30:58;;;;;;;13.05;6.35;;;;;;;22.63;74.74;94860.56;4937435;29;20178;-76
2022/06/24 05:33:24;;;;;;;12.68;6.38;;;;;;;23.26;73.80;94856.53;4937633;29;20187;-76
2022/06/24 05:35:55;;;;;;;9.18;5.35;;;;;;;24.11;68.99;94884.34;4937418;29;20245;-77
2022/06/24 05:38:22;;;;;;;17.50;6.25;;;;;;;24.76;68.42;94882.38;4937392;29;20183;-77
2022/06/24 05:40:51;;;;;;;10.82;5.78;;;;;;;25.47;66.08;94889.00;4937598;29;20159;-77
2022/06/24 05:43:17;;;;;;;8.63;5.63;;;;;;;26.19;63.83;94873.56;4937120;29;20183;-77
2022/06/24 05:45:43;;;;;;;7.85;5.32;;;;;;;26.83;61.97;94879.47;4937208;29;20171;-77
2022/06/24 05:48:09;;;;;;;7.40;5.25;;;;;;;27.40;58.14;94880.28;4936443;29;20197;-77
2022/06/24 05:50:38;;;;;;;8.75;6.28;;;;;;;27.67;57.26;94863.00;4937784;29;20693;-77
2022/06/24 05:55:49;;;;;;;11.35;7.13;;;;;;;27.93;55.09;94892.78;4937625;29;20318;-77
2022/06/24 05:58:15;;;;;;;16.63;10.80;;;;;;;27.57;56.58;94890.38;4937891;29;20199;-76
2022/06/24 06:00:41;;;;;;;22.98;14.40;;;;;;;27.08;58.08;94890.69;4936459;29;20541;-78
2022/06/24 06:03:06;;;;;;;9.63;6.78;;;;;;;26.47;59.72;94895.81;4935147;29;20186;-77
2022/06/24 06:05:32;;;;;;;15.25;6.30;;;;;;;25.86;60.57;94886.50;4937345;29;20546;-78
2022/06/24 06:07:57;;;;;;;6.65;5.35;;;;;;;25.14;61.92;94893.75;4937567;29;20171;-78
2022/06/24 06:10:22;;;;;;;8.50;4.75;;;;;;;24.53;64.89;94876.06;4937022;29;20210;-78
2022/06/24 06:12:48;;;;;;;11.85;5.43;;;;;;;24.47;66.91;94871.88;4934151;29;20205;-77
2022/06/24 06:15:13;;;;;;;4.90;3.97;;;;;;;24.65;67.02;94862.91;4936951;29;20811;-78
2022/06/24 06:17:39;;;;;;;8.05;4.38;;;;;;;24.80;65.09;94873.41;4936797;29;20183;-78
2022/06/24 06:20:05;;;;;;;6.28;3.95;;;;;;;24.71;64.50;94871.69;4935474;29;20667;-79
2022/06/24 06:22:30;;;;;;;7.22;4.68;;;;;;;24.33;64.94;94855.72;4936938;29;20178;-78
2022/06/24 06:24:55;;;;;;;5.28;4.40;;;;;;;24.51;66.74;94850.53;4937172;29;20180;-78
2022/06/24 06:27:21;;;;;;;4.55;4.15;;;;;;;24.85;68.12;94850.13;4937599;29;20707;-78
2022/06/24 06:29:47;;;;;;;6.75;3.90;;;;;;;25.27;67.31;94828.25;4951275;29;20171;-78
2022/06/24 06:32:13;;;;;;;4.75;3.70;;;;;;;25.99;63.80;94857.09;4938983;29;20638;-78
2022/06/24 06:34:38;;;;;;;10.18;3.92;;;;;;;26.44;63.04;94855.94;4955822;29;20175;-78
2022/06/24 06:37:04;;;;;;;11.43;4.80;;;;;;;26.77;60.71;94847.50;4956184;29;20155;-78
2022/06/24 06:39:29;;;;;;;11.77;3.67;;;;;;;27.01;59.37;94850.63;4942813;29;20235;-79
2022/06/24 06:41:55;;;;;;;6.90;3.53;;;;;;;27.30;60.58;94858.97;4936292;29;20636;-78
2022/06/24 06:44:20;;;;;;;5.90;3.60;;;;;;;27.49;56.79;94864.06;4936536;29;20167;-78
2022/06/24 06:46:46;;;;;;;4.93;3.53;;;;;;;27.41;55.77;94857.56;4934647;29;20187;-78
2022/06/24 06:49:11;;;;;;;4.70;3.55;;;;;;;26.50;57.57;94816.91;4919369;29;20242;-78
2022/06/24 06:51:37;;;;;;;12.02;4.43;;;;;;;26.39;60.20;94833.66;4935092;29;20179;-78
2022/06/24 06:54:03;;;;;;;4.50;3.40;;;;;;;26.60;62.46;94837.44;4935933;29;20551;-78
2022/06/24 06:56:29;;;;;;;9.45;3.50;;;;;;;27.12;62.46;94838.41;4936615;29;20167;-79
2022/06/24 06:58:54;;;;;;;4.97;3.78;;;;;;;27.53;58.55;94839.88;4936381;29;20175;-76
2022/06/24 07:01:20;;;;;;;3.90;3.20;;;;;;;27.89;58.47;94848.50;4934932;29;20179;-78
2022/06/24 07:03:48;;;;;;;5.68;3.55;;;;;;;28.18;56.45;94833.53;4936847;29;20547;-78
2022/06/24 07:06:14;;;;;;;6.43;3.58;;;;;;;28.54;55.40;94847.44;4933669;29;20182;-78
2022/06/24 07:08:39;;;;;;;6.47;3.00;;;;;;;28.83;55.65;94836.66;4935565;29;20179;-78
2022/06/24 07:11:05;;;;;;;8.25;4.95;;;;;;;29.12;53.30;94843.22;4934621;29;20183;-78
2022/06/24 07:13:31;;;;;;;3.67;3.08;;;;;;;29.16;52.71;94833.28;4935675;29;20697;-78
2022/06/24 07:15:56;;;;;;;4.93;3.45;;;;;;;29.35;53.68;94824.69;4934231;29;20544;-78
2022/06/24 07:18:22;;;;;;;5.07;3.10;;;;;;;29.57;51.72;94829.84;4934018;29;20183;-78
2022/06/24 07:20:48;;;;;;;5.03;3.78;;;;;;;29.56;52.61;94812.78;4935949;29;20258;-78
2022/06/24 07:23:13;;;;;;;7.22;4.03;;;;;;;29.70;52.47;94817.13;4935529;29;20175;-78
2022/06/24 07:25:39;;;;;;;7.47;4.03;;;;;;;29.76;52.13;94804.91;4933299;29;20190;-78
2022/06/24 07:28:05;;;;;;;4.10;3.00;;;;;;;29.45;49.29;94808.06;4935316;29;20174;-80
2022/06/24 07:30:31;;;;;;;8.32;4.93;;;;;;;29.49;51.14;94801.63;4934702;29;20531;-80
2022/06/24 07:32:56;;;;;;;5.30;4.07;;;;;;;29.46;50.84;94807.75;4934981;29;20202;-76
2022/06/24 07:35:23;;;;;;;6.47;4.88;;;;;;;29.74;51.66;94829.72;4936414;29;20340;-77
2022/06/24 07:37:48;;;;;;;9.50;3.88;;;;;;;29.63;51.52;94821.16;4939404;29;20179;-77
2022/06/24 07:40:15;;;;;;;5.88;3.30;;;;;;;29.11;48.72;94828.84;4935176;29;20179;-77
2022/06/24 07:42:42;;;;;;;5.93;3.15;;;;;;;28.46;51.07;94808.41;4936059;29;20254;-77
2022/06/24 07:45:08;;;;;;;6.55;2.72;;;;;;;28.58;54.39;94823.19;4933436;29;20182;-77
2022/06/24 07:47:36;;;;;;;7.72;3.25;;;;;;;28.92;52.10;94819.53;4935134;29;20183;-77
2022/06/24 07:50:06;;;;;;;6.93;2.45;;;;;;;29.27;53.40;94832.56;4933189;29;20175;-79
2022/06/24 07:52:31;;;;;;;5.07;3.00;;;;;;;29.66;51.00;94818.91;4935280;29;20199;-79
2022/06/24 07:57:41;;;;;;;4.13;3.10;;;;;;;29.83;47.07;94821.47;4935052;29;20190;-78
2022/06/24 08:00:07;;;;;;;8.82;3.42;;;;;;;29.61;52.61;94814.47;4934915;29;20593;-79
2022/06/24 08:02:36;;;;;;;5.72;2.97;;;;;;;29.91;51.05;94807.03;4936705;29;20172;-79
2022/06/24 08:05:01;;;;;;;3.40;2.70;;;;;;;29.90;49.95;94798.09;4933689;29;20765;-79
2022/06/24 08:07:27;;;;;;;5.53;3.28;;;;;;;29.31;50.06;94811.03;4934327;29;20175;-80
2022/06/24 08:09:52;;;;;;;8.63;2.80;;;;;;;28.87;52.71;94812.41;4934671;29;20217;-79
2022/06/24 08:12:17;;;;;;;6.55;2.80;;;;;;;28.45;53.41;94811.47;4934626;29;20286;-80
2022/06/24 08:14:43;;;;;;;2.92;2.63;;;;;;;28.02;52.14;94804.19;4928488;29;20183;-80
2022/06/24 08:17:08;;;;;;;3.00;2.70;;;;;;;27.96;54.81;94802.00;4934456;29;20261;-80
2022/06/24 08:19:35;;;;;;;6.07;2.72;;;;;;;28.36;53.59;94818.81;4936015;29;20187;-80
2022/06/24 08:22:00;;;;;;;3.70;2.50;;;;;;;28.80;53.33;94804.00;4933723;29;20186;-79
2022/06/24 08:24:26;;;;;;;5.68;2.88;;;;;;;29.40;52.01;94814.50;4933610;29;20183;-79
2022/06/24 08:26:51;;;;;;;4.38;3.03;;;;;;;29.40;53.56;94811.78;4933922;29;20251;-79
2022/06/24 08:29:17;;;;;;;5.63;3.08;;;;;;;29.54;50.90;94806.06;4934550;29;20174;-80
2022/06/24 08:31:43;;;;;;;3.40;2.88;;;;;;;29.76;51.43;94804.91;4934532;29;20182;-79
2022/06/24 08:34:09;;;;;;;4.80;2.40;;;;;;;29.81;50.68;94807.44;4934907;29;20519;-79
2022/06/24 08:36:36;;;;;;;4.22;2.40;;;;;;;29.82;51.87;94807.13;4931547;29;20182;-79
2022/06/24 08:39:02;;;;;;;7.25;2.55;;;;;;;30.01;51.03;94803.94;4934342;29;20254;-80
2022/06/24 08:41:29;;;;;;;5.95;2.60;;;;;;;29.96;51.61;94796.78;4936109;29;20183;-80
2022/06/24 08:43:56;;;;;;;5.03;2.97;;;;;;;29.94;51.04;94790.88;4916951;29;20179;-80
2022/06/24 08:46:23;;;;;;;3.80;2.78;;;;;;;29.69;49.94;94801.94;4934096;29;20430;-82
2022/06/24 08:48:49;;;;;;;2.65;2.45;;;;;;;29.10;51.00;94821.84;4917120;29;20628;-81
2022/06/24 08:51:15;;;;;;;5.22;2.63;;;;;;;28.86;52.41;94821.66;4934403;29;20187;-79
2022/06/24 08:53:43;;;;;;;11.98;3.85;;;;;;;28.80;54.73;94818.31;4934198;29;20254;-79
2022/06/24 08:56:08;;;;;;;4.90;2.40;;;;;;;28.95;52.41;94827.03;4931769;29;20230;-79
2022/06/24 08:58:34;;;;;;;3.95;2.80;;;;;;;29.11;52.42;94812.56;4933991;29;20183;-79
2022/06/24 09:01:00;;;;;;;3.58;2.45;;;;;;;28.75;50.97;94801.44;4917222;29;20183;-79
2022/06/24 09:03:26;;;;;;;4.38;2.58;;;;;;;28.48;51.96;94797.25;4933930;29;20254;-78
2022/06/24 09:05:51;;;;;;;3.40;2.50;;;;;;;28.24;53.86;94814.06;4934107;29;20214;-80
2022/06/24 09:08:17;;;;;;;4.13;2.30;;;;;;;28.01;52.85;94801.84;4934163;29;20175;-80
2022/06/24 09:13:42;;;;;;;3.88;2.10;;;;;;;27.72;55.28;94810.63;4931350;29;20267;-83
2022/06/24 09:16:08;;;;;;;3.15;2.47;;;;;;;27.64;54.79;94806.81;4934095;29;20174;-76
2022/06/24 09:18:34;;;;;;;5.00;2.30;;;;;;;27.80;57.16;94809.81;4933838;29;20189;-79
2022/06/24 09:20:59;;;;;;;3.28;1.88;;;;;;;27.91;53.97;94789.44;4933945;29;20191;-79
2022/06/24 09:23:25;;;;;;;4.22;2.53;;;;;;;27.99;54.64;94801.34;4933904;29;20167;-78
2022/06/24 09:25:52;;;;;;;3.72;2.47;;;;;;;28.12;54.60;94803.84;4932910;29;20187;-78
2022/06/24 09:28:29;;;;;;;3.45;2.50;;;;;;;27.68;54.04;94783.41;4933839;29;20183;-77
2022/06/24 09:31:04;;;;;;;4.00;2.42;;;;;;;27.66;55.94;94807.31;4933110;29;20187;-77
2022/06/24 09:33:47;;;;;;;3.92;2.00;;;;;;;27.89;55.55;94807.09;4930767;29;20199;-78
2022/06/24 09:36:13;;;;;;;3.80;2.22;;;;;;;28.05;56.33;94800.06;4932395;29;20179;-77
2022/06/24 09:38:56;;;;;;;4.68;2.17;;;;;;;28.41;54.79;94805.09;4935076;29;20189;-77
2022/06/24 09:41:23;;;;;;;2.88;1.85;;;;;;;28.54;55.86;94801.38;4935810;29;20206;-77
2022/06/24 09:43:51;;;;;;;2.55;1.80;;;;;;;28.74;50.94;94814.19;4936967;29;20179;-77
2022/06/24 09:46:18;;;;;;;3.05;2.15;;;;;;;28.81;50.79;94808.28;4936839;29;20925;-77
2022/06/24 09:48:44;;;;;;;3.85;1.95;;;;;;;28.91;51.94;94813.31;4939475;29;20183;-75
2022/06/24 09:51:10;;;;;;;3.78;1.88;;;;;;;29.01;50.40;94815.66;4938022;29;20189;-78
2022/06/24 09:53:37;;;;;;;3.80;2.15;;;;;;;29.05;50.48;94808.47;4936801;29;20223;-77
2022/06/24 09:56:07;;;;;;;2.65;1.80;;;;;;;29.13;48.25;94795.97;4937750;29;20227;-77
2022/06/24 09:58:34;;;;;;;2.33;1.88;;;;;;;29.22;47.24;94815.72;4937141;29;20183;-77
2022/06/24 10:01:00;;;;;;;4.55;2.38;;;;;;;29.19;46.42;94811.72;4937152;29;20193;-80
2022/06/24 10:03:28;;;;;;;2.17;1.90;;;;;;;29.06;50.63;94806.56;4936991;29;20202;-83
2022/06/24 10:05:57;;;;;;;5.40;2.15;;;;;;;28.84;50.39;94794.88;4937376;29;20302;-83
2022/06/24 10:08:23;;;;;;;5.50;2.67;;;;;;;28.60;50.53;94794.66;4920144;29;20278;-83
2022/06/24 10:10:55;;;;;;;4.75;2.80;;;;;;;28.63;54.46;94817.59;4936260;29;20262;-83
2022/06/24 10:13:25;;;;;;;4.95;2.45;;;;;;;28.66;53.38;94828.56;4935325;29;20202;-83
2022/06/24 10:15:53;;;;;;;5.90;2.30;;;;;;;28.65;52.24;94828.88;4935089;29;20250;-83
2022/06/24 10:18:21;;;;;;;4.07;1.98;;;;;;;28.46;48.38;94794.06;4935271;29;20187;-83
2022/06/24 10:20:47;;;;;;;4.82;2.42;;;;;;;28.62;50.61;94827.66;4934971;29;20179;-82
2022/06/24 10:23:51;;;;;;;4.10;2.08;;;;;;;27.92;50.07;94826.22;4935059;29;20179;-83
2022/06/24 10:26:28;;;;;;;2.20;2.00;;;;;;;27.49;50.97;94792.94;4934904;29;20186;-83
2022/06/24 10:29:03;;;;;;;4.35;2.20;;;;;;;27.69;55.02;94812.06;4934863;29;20210;-82
2022/06/24 10:31:56;;;;;;;2.90;2.20;;;;;;;27.13;52.63;94815.69;4926963;29;20205;-82
2022/06/24 10:34:33;;;;;;;3.28;2.10;;;;;;;27.20;55.58;94817.91;4934617;29;20175;-82
2022/06/24 10:37:09;;;;;;;6.85;2.40;;;;;;;27.24;56.81;94794.53;4934969;29;20599;-82
2022/06/24 10:39:46;;;;;;;3.90;2.25;;;;;;;27.59;53.96;94815.06;4934610;29;20163;-82
2022/06/24 10:42:14;;;;;;;2.15;1.95;;;;;;;27.73;53.20;94812.22;4934805;29;20700;-82
2022/06/24 10:44:53;;;;;;;3.58;1.90;;;;;;;27.86;53.07;94816.66;4934554;29;20663;-82
2022/06/24 10:47:19;;;;;;;2.65;1.55;;;;;;;27.83;48.35;94814.59;4934568;29;20186;-82
2022/06/24 10:50:01;;;;;;;4.40;1.77;;;;;;;27.93;51.70;94811.56;4934264;29;20556;-82
2022/06/24 10:52:36;;;;;;;2.22;1.63;;;;;;;27.97;48.09;94809.78;4934335;29;20239;-82
2022/06/24 10:55:29;;;;;;;4.05;2.55;;;;;;;28.01;49.41;94815.38;4934463;29;20218;-82
2022/06/24 10:58:03;;;;;;;5.93;2.15;;;;;;;28.12;52.42;94803.84;4934799;29;20184;-82
2022/06/24 11:00:29;;;;;;;11.50;7.63;;;;;;;28.22;49.60;94801.97;4934608;29;20170;-82
2022/06/24 11:02:57;;;;;;;9.30;5.65;;;;;;;28.24;48.07;94805.94;4917446;29;20190;-82
2022/06/24 11:05:29;;;;;;;4.55;2.65;;;;;;;28.07;48.63;94776.19;4934357;29;20529;-82
2022/06/24 11:07:55;;;;;;;4.65;1.85;;;;;;;27.88;45.47;94783.84;4934441;29;20183;-82
2022/06/24 11:10:23;;;;;;;1.90;1.80;;;;;;;27.99;49.17;94799.44;4934067;29;20181;-83
2022/06/24 11:12:54;;;;;;;2.20;1.90;;;;;;;28.06;48.25;94794.31;4933971;29;20706;-82
2022/06/24 11:15:39;;;;;;;4.57;1.58;;;;;;;27.96;47.31;94788.44;4934017;29;20217;-82
2022/06/24 11:18:10;;;;;;;4.15;2.30;;;;;;;28.02;48.28;94793.38;4933904;29;20183;-82
2022/06/24 11:20:56;;;;;;;4.07;1.80;;;;;;;28.07;48.38;94798.63;4934056;29;20175;-82
2022/06/24 11:23:26;;;;;;;4.57;2.25;;;;;;;27.97;48.47;94788.13;4933879;29;20167;-82
2022/06/24 11:26:04;;;;;;;3.05;1.77;;;;;;;27.77;45.89;94786.91;4934009;29;20274;-82
2022/06/24 11:28:34;;;;;;;4.72;2.15;;;;;;;27.65;46.59;94792.19;4934187;29;20233;-81
2022/06/24 11:31:26;;;;;;;3.90;2.42;;;;;;;27.49;47.15;94785.63;4933957;29;20270;-82
2022/06/24 11:34:12;;;;;;;5.82;2.65;;;;;;;27.42;49.36;94780.69;4933769;29;20306;-82
2022/06/24 11:36:41;;;;;;;3.15;2.10;;;;;;;27.48;48.49;94772.44;4933234;29;20260;-82
2022/06/24 11:39:09;;;;;;;2.03;1.83;;;;;;;27.54;46.96;94776.59;4916755;29;20182;-82
2022/06/24 11:41:40;;;;;;;2.78;1.85;;;;;;;27.64;48.25;94760.03;4933519;29;20225;-81
2022/06/24 11:44:06;;;;;;;4.55;1.75;;;;;;;27.80;49.00;94763.81;4933721;29;20222;-82
2022/06/24 11:46:34;;;;;;;2.65;1.70;;;;;;;27.68;48.17;94733.91;4933250;29;20262;-82
2022/06/24 11:49:12;;;;;;;2.90;1.73;;;;;;;27.69;46.35;94768.75;4933596;29;20171;-82
2022/06/24 11:51:40;;;;;;;7.10;2.53;;;;;;;27.58;48.43;94764.03;4933192;29;20175;-82